Time;durP1;ratioP1;P1;durP2;ratioP2;P2;SDS_P1;SDS_P2;PMS_P1;PMS_P2;Temp;Humidity;BMP_temperature;BMP_pressure;BME280_temperature;BME280_humidity;BME280_pressure;Samples;Min_cycle;Max_cycle;Signal;HPM_P1;HPM_P2
2023/03/24 00:00:37;;;;;;;1.93;0.40;;;7.60;99.90;;;;;;6215443;23;20169;-86
2023/03/24 00:03:09;;;;;;;0.30;0.30;;;7.80;99.90;;;;;;6215524;23;20169;-86
2023/03/24 00:05:42;;;;;;;1.63;0.27;;;7.80;99.90;;;;;;6215796;23;20226;-87
2023/03/24 00:08:13;;;;;;;0.97;0.40;;;7.70;99.90;;;;;;6215349;23;20243;-86
2023/03/24 00:10:47;;;;;;;0.50;0.50;;;7.70;99.90;;;;;;6218645;23;20712;-87
2023/03/24 00:13:18;;;;;;;0.50;0.47;;;7.60;99.90;;;;;;6218414;23;20192;-86
2023/03/24 00:15:49;;;;;;;2.43;0.40;;;7.60;99.90;;;;;;6216581;23;20180;-86
2023/03/24 00:18:24;;;;;;;0.30;0.30;;;7.70;99.90;;;;;;6215671;23;21020;-86
2023/03/24 00:20:57;;;;;;;0.50;0.30;;;7.60;99.90;;;;;;6217804;23;20665;-87
2023/03/24 00:23:32;;;;;;;0.40;0.30;;;7.60;99.90;;;;;;6228707;23;20168;-87
2023/03/24 00:26:06;;;;;;;2.53;0.40;;;7.60;99.90;;;;;;6238866;23;20191;-86
2023/03/24 00:28:38;;;;;;;1.70;0.40;;;7.50;99.90;;;;;;6234479;23;20190;-87
2023/03/24 00:31:09;;;;;;;0.57;0.40;;;7.30;99.90;;;;;;6219201;23;20575;-86
2023/03/24 00:33:43;;;;;;;1.20;0.50;;;7.20;99.90;;;;;;6220799;23;20164;-88
2023/03/24 00:36:15;;;;;;;0.97;0.30;;;7.10;99.90;;;;;;6221239;23;20173;-87
2023/03/24 00:38:48;;;;;;;0.63;0.50;;;7.00;99.90;;;;;;6192904;23;20167;-87
2023/03/24 00:41:20;;;;;;;0.70;0.50;;;7.00;99.90;;;;;;6216649;23;20234;-87
2023/03/24 00:43:54;;;;;;;1.90;0.50;;;6.90;99.90;;;;;;6218096;23;20206;-88
2023/03/24 00:46:30;;;;;;;3.43;0.40;;;6.60;99.90;;;;;;6191755;23;20240;-89
2023/03/24 00:49:05;;;;;;;0.97;0.47;;;6.40;99.90;;;;;;6214656;23;20539;-87
2023/03/24 00:51:38;;;;;;;0.57;0.30;;;6.30;99.90;;;;;;6215977;23;20172;-86
2023/03/24 00:54:11;;;;;;;1.17;0.50;;;6.30;99.90;;;;;;6216050;23;20239;-87
2023/03/24 00:56:42;;;;;;;0.73;0.60;;;6.40;99.90;;;;;;6215564;23;20164;-86
2023/03/24 00:59:14;;;;;;;0.33;0.33;;;6.70;99.90;;;;;;6213599;23;20180;-86
2023/03/24 01:01:44;;;;;;;0.67;0.40;;;6.70;99.90;;;;;;6215301;23;20165;-85
2023/03/24 01:04:19;;;;;;;1.37;0.70;;;6.60;99.90;;;;;;6216416;23;20172;-87
2023/03/24 01:06:53;;;;;;;1.13;0.57;;;6.70;99.90;;;;;;6217569;23;20178;-88
2023/03/24 01:09:24;;;;;;;4.23;0.40;;;6.80;99.90;;;;;;6196741;23;20200;-89
2023/03/24 01:11:57;;;;;;;0.87;0.30;;;6.90;99.90;;;;;;6218932;23;20215;-96
2023/03/24 01:22:36;;;;;;;0.20;0.20;;;6.10;99.90;;;;;;6207029;23;20447;-96
2023/03/24 01:35:53;;;;;;;0.40;0.40;;;5.80;99.90;;;;;;6233739;23;20252;-96
2023/03/24 01:38:38;;;;;;;0.97;0.50;;;5.70;99.90;;;;;;6180977;23;20320;-96
2023/03/24 01:41:19;;;;;;;1.80;0.43;;;5.70;99.90;;;;;;6240553;23;20187;-95
2023/03/24 01:43:52;;;;;;;0.50;0.47;;;5.60;99.90;;;;;;6242443;23;20180;-95
2023/03/24 01:46:43;;;;;;;0.60;0.30;;;5.50;99.90;;;;;;6241731;23;20260;-95
2023/03/24 01:49:15;;;;;;;0.40;0.40;;;5.50;99.90;;;;;;6202861;23;20216;-96
2023/03/24 01:51:49;;;;;;;0.77;0.40;;;5.40;99.90;;;;;;6238419;23;20216;-94
2023/03/24 01:54:29;;;;;;;0.47;0.47;;;5.50;99.90;;;;;;6241559;23;20546;-94
2023/03/24 02:05:13;;;;;;;0.73;0.40;;;5.30;99.90;;;;;;6221449;23;20205;-96
2023/03/24 02:07:51;;;;;;;1.30;0.50;;;5.30;99.90;;;;;;6243501;23;20158;-96
2023/03/24 03:01:53;;;;;;;3.53;1.10;;;4.80;99.90;;;;;;6191812;23;20218;-94
2023/03/24 05:03:12;;;;;;;4.40;1.37;;;4.20;99.90;;;;;;6213828;23;20269;-91
2023/03/24 05:12:16;;;;;;;7.97;1.70;;;4.00;99.90;;;;;;6195840;22;20247;-96
2023/03/24 05:14:49;;;;;;;8.97;0.90;;;4.00;99.90;;;;;;6241437;23;20174;-96
2023/03/24 05:17:21;;;;;;;5.47;1.30;;;4.00;99.90;;;;;;6243561;23;20153;-95
2023/03/24 05:19:57;;;;;;;5.33;1.17;;;3.90;99.90;;;;;;6241203;23;20206;-96
2023/03/24 05:22:30;;;;;;;4.97;1.30;;;3.90;99.90;;;;;;6243189;23;20159;-95
2023/03/24 05:54:45;;;;;;;6.70;1.77;;;3.90;99.90;;;;;;6166372;23;20251;-91
2023/03/24 05:57:18;;;;;;;7.27;1.67;;;3.90;99.90;;;;;;6206160;23;20236;-95
2023/03/24 05:59:53;;;;;;;4.10;1.00;;;3.90;99.90;;;;;;6210260;23;20181;-94
2023/03/24 09:19:27;;;;;;;3.83;1.20;;;3.80;99.90;;;;;;6225291;23;20234;-95
2023/03/24 09:21:59;;;;;;;4.40;1.13;;;3.90;99.90;;;;;;6242211;23;20204;-96
2023/03/24 09:24:32;;;;;;;4.40;1.00;;;3.80;99.90;;;;;;6241917;23;20168;-96
2023/03/24 09:27:04;;;;;;;6.10;1.23;;;3.80;99.90;;;;;;6243005;23;20196;-96
2023/03/24 09:29:35;;;;;;;2.77;0.70;;;3.80;99.90;;;;;;6241162;23;20229;-96
2023/03/24 09:32:10;;;;;;;3.53;0.80;;;3.90;99.90;;;;;;6241517;23;20183;-96
2023/03/24 09:34:44;;;;;;;2.90;0.80;;;3.90;99.90;;;;;;6240937;23;20235;-96
2023/03/24 09:37:16;;;;;;;2.67;0.80;;;3.90;99.90;;;;;;6241552;23;20170;-95
2023/03/24 09:39:50;;;;;;;4.03;0.93;;;3.90;99.90;;;;;;6241833;23;20223;-96
2023/03/24 09:42:26;;;;;;;1.90;0.80;;;3.80;99.90;;;;;;6218419;23;20196;-95
2023/03/24 10:46:47;;;;;;;5.23;2.00;;;3.50;99.90;;;;;;6205341;23;20192;-91
2023/03/24 10:49:21;;;;;;;3.87;1.10;;;3.50;99.90;;;;;;6208708;23;20176;-93
2023/03/24 11:24:21;;;;;;;2.80;1.20;;;3.40;99.90;;;;;;6217879;23;20229;-95
2023/03/24 11:27:00;;;;;;;2.77;1.17;;;3.40;99.90;;;;;;6236990;23;20259;-95
2023/03/24 11:29:35;;;;;;;2.20;1.20;;;3.40;99.90;;;;;;6239428;23;20172;-95
2023/03/24 11:32:14;;;;;;;3.93;1.10;;;3.40;99.90;;;;;;6239951;23;20253;-96
2023/03/24 11:34:55;;;;;;;1.73;1.00;;;3.40;99.90;;;;;;6191900;23;20268;-95
2023/03/24 11:37:30;;;;;;;2.10;1.07;;;3.30;99.90;;;;;;6242057;23;20179;-94
2023/03/24 11:40:24;;;;;;;2.20;1.10;;;3.30;99.90;;;;;;6240459;23;20183;-94
2023/03/24 11:42:59;;;;;;;2.77;1.30;;;3.40;99.90;;;;;;6241615;23;20176;-96
2023/03/24 11:45:38;;;;;;;1.87;1.00;;;3.40;99.90;;;;;;6241124;23;20236;-91
2023/03/24 11:48:23;;;;;;;2.63;1.13;;;3.40;99.90;;;;;;6239712;23;20159;-95
2023/03/24 11:50:57;;;;;;;2.23;1.17;;;3.40;99.90;;;;;;6241164;23;20171;-95
2023/03/24 11:53:36;;;;;;;2.40;1.30;;;3.40;99.90;;;;;;6241680;23;20176;-96
2023/03/24 12:31:49;;;;;;;3.83;1.10;;;3.20;99.90;;;;;;6241422;23;20219;-96
2023/03/24 12:34:49;;;;;;;1.90;0.87;;;3.20;99.90;;;;;;6240414;23;20242;-96
2023/03/24 12:37:32;;;;;;;0.87;0.80;;;3.20;99.90;;;;;;6239106;23;20148;-96
2023/03/24 12:40:23;;;;;;;1.80;0.90;;;3.20;99.90;;;;;;6238634;23;20192;-96
2023/03/24 12:43:05;;;;;;;2.63;0.80;;;3.30;99.90;;;;;;6240773;23;20163;-96
2023/03/24 14:52:28;;;;;;;1.00;0.90;;;3.60;99.90;;;;;;6205551;23;20230;-96
2023/03/24 14:55:03;;;;;;;1.13;0.70;;;3.60;99.90;;;;;;6235613;23;20232;-96
2023/03/24 14:57:40;;;;;;;0.97;0.50;;;3.70;99.90;;;;;;6231665;23;20196;-96
2023/03/24 15:00:20;;;;;;;1.17;0.73;;;3.70;99.90;;;;;;6232359;23;20184;-96
2023/03/24 15:02:53;;;;;;;2.53;0.70;;;3.70;99.90;;;;;;6238252;23;20179;-96
2023/03/24 15:05:30;;;;;;;1.53;0.60;;;3.70;99.90;;;;;;6236979;23;20200;-96
2023/03/24 16:04:49;;;;;;;1.43;1.10;;;3.30;99.90;;;;;;6217698;23;20215;-96
2023/03/24 16:07:39;;;;;;;3.57;1.53;;;3.50;99.90;;;;;;6235829;23;20211;-96
2023/03/24 16:10:31;;;;;;;3.73;1.30;;;3.40;99.90;;;;;;6202163;23;20473;-96
2023/03/24 16:13:19;;;;;;;2.70;1.30;;;3.50;99.90;;;;;;6238832;23;20202;-96
2023/03/24 16:48:18;;;;;;;6.00;1.20;;;4.20;99.90;;;;;;6205027;23;20198;-95
2023/03/24 16:50:53;;;;;;;3.93;1.30;;;4.20;99.90;;;;;;6230458;23;20168;-96
2023/03/24 16:53:25;;;;;;;4.27;1.10;;;4.30;99.90;;;;;;6239915;23;20476;-96
2023/03/24 17:17:43;;;;;;;2.93;1.20;;;4.60;99.90;;;;;;6169371;23;20211;-92
2023/03/24 17:20:17;;;;;;;3.43;1.03;;;4.40;99.90;;;;;;6196528;23;20634;-93
2023/03/24 17:22:52;;;;;;;6.57;1.10;;;4.50;99.90;;;;;;6197148;23;20293;-96
2023/03/24 18:22:00;;;;;;;3.70;0.60;;;5.20;99.90;;;;;;6205725;23;20223;-96
2023/03/24 18:32:34;;;;;;;4.47;0.97;;;5.70;99.90;;;;;;6235436;23;20215;-96
2023/03/24 18:35:08;;;;;;;4.57;1.00;;;6.00;99.90;;;;;;6236888;23;20207;-96
2023/03/24 18:37:45;;;;;;;3.67;0.90;;;5.90;99.90;;;;;;6216499;23;20208;-96
2023/03/24 18:42:52;;;;;;;2.70;1.10;;;5.70;99.90;;;;;;6223483;23;20918;-96
2023/03/24 18:45:24;;;;;;;4.53;1.27;;;5.80;99.90;;;;;;6236954;23;20508;-96
2023/03/24 18:47:58;;;;;;;3.93;1.13;;;6.00;99.90;;;;;;6232577;23;20227;-96
2023/03/24 18:50:30;;;;;;;4.97;1.17;;;5.90;99.90;;;;;;6232201;23;20236;-96
2023/03/24 18:53:05;;;;;;;4.03;1.10;;;6.00;99.90;;;;;;6231522;23;20164;-96
2023/03/24 18:55:37;;;;;;;3.13;1.10;;;6.00;99.90;;;;;;6227899;23;20164;-96
2023/03/24 18:58:13;;;;;;;3.90;1.00;;;6.10;99.90;;;;;;6231156;23;20173;-96
2023/03/24 19:00:50;;;;;;;8.70;1.30;;;6.30;99.90;;;;;;6237744;23;20157;-96
2023/03/24 19:06:05;;;;;;;4.00;1.40;;;5.90;99.90;;;;;;6201349;23;20242;-96
2023/03/24 19:08:43;;;;;;;3.63;1.00;;;6.00;99.90;;;;;;6234876;23;20201;-96
2023/03/24 19:11:16;;;;;;;9.37;1.40;;;6.00;99.90;;;;;;6230500;23;20229;-96
2023/03/24 19:13:49;;;;;;;4.40;1.10;;;6.00;99.90;;;;;;6239631;23;20180;-96
2023/03/24 19:16:22;;;;;;;5.70;1.83;;;6.00;99.90;;;;;;6235366;23;20180;-96
2023/03/24 19:18:56;;;;;;;2.80;1.20;;;6.00;99.90;;;;;;6232395;23;20176;-95
2023/03/24 19:21:28;;;;;;;3.07;1.20;;;6.10;99.90;;;;;;6234798;23;20172;-96
2023/03/24 19:24:02;;;;;;;2.47;1.10;;;6.00;99.90;;;;;;6221640;23;20176;-96
2023/03/24 19:26:33;;;;;;;4.37;0.83;;;6.10;99.90;;;;;;6228962;23;20168;-96
2023/03/24 19:31:39;;;;;;;2.53;0.90;;;6.30;99.90;;;;;;6175514;23;20269;-93
2023/03/24 19:34:11;;;;;;;3.00;1.07;;;6.40;99.90;;;;;;6220887;23;20176;-93
2023/03/24 19:36:44;;;;;;;2.97;0.90;;;6.70;99.90;;;;;;6197044;23;20191;-95
2023/03/24 19:39:21;;;;;;;2.70;1.13;;;6.90;99.90;;;;;;6221122;23;20518;-94
2023/03/24 19:41:53;;;;;;;4.37;1.00;;;6.90;99.90;;;;;;6221047;23;20177;-95
2023/03/24 19:44:24;;;;;;;2.93;0.97;;;6.90;99.90;;;;;;6192645;23;20180;-87
2023/03/24 19:46:55;;;;;;;4.57;1.00;;;6.90;99.90;;;;;;6221740;23;20172;-88
2023/03/24 19:49:26;;;;;;;6.60;1.37;;;7.00;99.90;;;;;;6236555;23;20172;-79
2023/03/24 19:51:58;;;;;;;2.67;1.00;;;7.00;99.90;;;;;;6239833;23;20176;-89
2023/03/24 19:54:30;;;;;;;3.03;1.00;;;6.90;99.90;;;;;;6224304;23;20247;-89
2023/03/24 19:57:02;;;;;;;6.20;1.20;;;7.00;99.90;;;;;;6216551;23;20204;-88
2023/03/24 19:59:33;;;;;;;5.17;0.90;;;7.00;99.90;;;;;;6215606;23;20185;-88
2023/03/24 20:02:04;;;;;;;2.90;1.00;;;7.20;99.90;;;;;;6216978;23;20689;-87
2023/03/24 20:04:36;;;;;;;2.80;0.90;;;7.10;99.90;;;;;;6215722;23;20263;-86
2023/03/24 20:07:07;;;;;;;4.93;1.27;;;7.10;99.90;;;;;;6214205;23;20634;-88
2023/03/24 20:09:40;;;;;;;3.80;1.00;;;7.10;99.90;;;;;;6215942;23;20180;-88
2023/03/24 20:12:12;;;;;;;2.07;1.00;;;7.10;99.90;;;;;;6215002;23;20173;-88
2023/03/24 20:14:43;;;;;;;5.07;1.20;;;7.20;99.90;;;;;;6216252;23;20673;-88
2023/03/24 20:17:18;;;;;;;3.67;1.30;;;7.10;99.90;;;;;;6215292;23;20184;-88
2023/03/24 20:19:50;;;;;;;3.50;1.13;;;7.20;99.90;;;;;;6214312;23;20179;-89
2023/03/24 20:22:22;;;;;;;4.47;0.97;;;7.20;99.90;;;;;;6214602;23;20174;-88
2023/03/24 20:24:56;;;;;;;3.33;1.30;;;7.20;99.90;;;;;;6214749;23;20542;-90
2023/03/24 20:27:27;;;;;;;2.50;0.87;;;7.30;99.90;;;;;;6212741;23;20661;-86
2023/03/24 20:29:58;;;;;;;4.57;1.20;;;7.30;99.90;;;;;;6215364;23;20240;-89
2023/03/24 20:32:30;;;;;;;5.20;0.83;;;7.00;99.90;;;;;;6218679;23;20499;-93
2023/03/24 20:35:04;;;;;;;4.17;0.70;;;6.80;99.90;;;;;;6218106;23;20220;-86
2023/03/24 20:37:36;;;;;;;2.63;0.77;;;6.70;99.90;;;;;;6213526;23;20173;-84
2023/03/24 20:40:10;;;;;;;2.40;1.00;;;6.60;99.90;;;;;;6217028;23;20176;-86
2023/03/24 20:42:41;;;;;;;3.20;1.03;;;6.80;99.90;;;;;;6217051;23;20175;-86
2023/03/24 20:45:13;;;;;;;2.27;1.10;;;6.80;99.90;;;;;;6216284;23;20180;-86
2023/03/24 20:47:45;;;;;;;3.40;1.07;;;7.00;99.90;;;;;;6217008;23;20283;-84
2023/03/24 20:50:16;;;;;;;4.83;1.33;;;7.10;99.90;;;;;;6216555;23;20615;-85
2023/03/24 20:52:48;;;;;;;2.20;0.80;;;7.20;99.90;;;;;;6216642;23;20172;-85
2023/03/24 20:55:22;;;;;;;2.93;0.87;;;7.20;99.90;;;;;;6191788;23;20184;-91
2023/03/24 20:57:54;;;;;;;2.23;0.90;;;7.20;99.90;;;;;;6215856;23;20502;-90
2023/03/24 21:00:26;;;;;;;4.83;1.17;;;7.20;99.90;;;;;;6217589;23;20557;-87
2023/03/24 21:02:59;;;;;;;2.90;0.80;;;7.40;99.90;;;;;;6191736;23;20180;-94
2023/03/24 21:05:30;;;;;;;5.87;0.90;;;7.10;99.90;;;;;;6218203;23;20757;-93
2023/03/24 21:08:02;;;;;;;6.10;0.97;;;7.10;99.90;;;;;;6217015;23;20211;-91
2023/03/24 21:10:37;;;;;;;2.50;0.90;;;7.10;99.90;;;;;;6219596;23;20234;-94
2023/03/24 21:13:08;;;;;;;3.43;0.90;;;7.20;99.90;;;;;;6219474;23;20230;-88
2023/03/24 21:15:44;;;;;;;2.50;0.87;;;7.30;99.90;;;;;;6223412;23;20182;-93
2023/03/24 21:18:16;;;;;;;2.80;1.00;;;7.30;99.90;;;;;;6223907;23;20231;-92
2023/03/24 21:20:55;;;;;;;5.77;1.10;;;7.50;99.90;;;;;;6227558;23;20177;-94
2023/03/24 21:23:26;;;;;;;2.93;0.80;;;7.30;99.90;;;;;;6219472;23;20219;-91
2023/03/24 21:26:00;;;;;;;4.10;1.00;;;7.40;99.90;;;;;;6218640;23;20169;-93
2023/03/24 21:28:33;;;;;;;3.77;0.80;;;7.20;99.90;;;;;;6218720;23;20282;-92
2023/03/24 21:31:10;;;;;;;6.80;1.10;;;7.20;99.90;;;;;;6219402;23;20187;-93
2023/03/24 21:33:43;;;;;;;2.07;0.80;;;7.20;99.90;;;;;;6225632;23;20195;-94
2023/03/24 21:36:15;;;;;;;3.20;1.10;;;7.10;99.90;;;;;;6227404;23;20176;-93
2023/03/24 21:38:50;;;;;;;3.60;0.80;;;7.00;99.90;;;;;;6222498;23;20180;-95
2023/03/24 21:41:24;;;;;;;1.73;0.83;;;7.00;99.90;;;;;;6219630;23;20176;-92
2023/03/24 21:43:59;;;;;;;3.63;1.20;;;7.20;99.90;;;;;;6219471;23;20537;-93
2023/03/24 21:46:30;;;;;;;2.33;0.80;;;7.10;99.90;;;;;;6220061;23;20173;-94
2023/03/24 21:49:02;;;;;;;4.13;0.87;;;7.10;99.90;;;;;;6218510;23;20591;-93
2023/03/24 21:51:35;;;;;;;3.63;1.17;;;7.10;99.90;;;;;;6219665;23;20607;-93
2023/03/24 21:54:08;;;;;;;4.03;0.73;;;7.20;99.90;;;;;;6221611;23;20173;-94
2023/03/24 21:56:42;;;;;;;2.70;0.80;;;6.90;99.90;;;;;;6218889;23;20176;-89
2023/03/24 21:59:14;;;;;;;2.83;0.93;;;7.00;99.90;;;;;;6238748;23;20163;-89
2023/03/24 22:01:46;;;;;;;3.00;0.80;;;7.10;99.90;;;;;;6240439;23;20176;-92
2023/03/24 22:04:17;;;;;;;3.43;0.80;;;7.20;99.90;;;;;;6230417;23;20172;-88
2023/03/24 22:06:49;;;;;;;1.73;0.87;;;7.20;99.90;;;;;;6216040;23;20180;-89
2023/03/24 22:09:20;;;;;;;1.97;0.80;;;7.30;99.90;;;;;;6216572;23;20204;-88
2023/03/24 22:11:56;;;;;;;2.37;0.63;;;7.50;99.90;;;;;;6217716;23;20243;-89
2023/03/24 22:14:27;;;;;;;1.80;0.60;;;7.60;99.90;;;;;;6217165;23;20172;-89
2023/03/24 22:16:58;;;;;;;1.60;0.57;;;7.90;99.90;;;;;;6220239;23;20247;-89
2023/03/24 22:19:30;;;;;;;1.90;0.67;;;7.70;99.90;;;;;;6216745;23;20623;-90
2023/03/24 22:22:02;;;;;;;2.60;0.70;;;7.70;99.90;;;;;;6217412;23;20172;-87
2023/03/24 22:24:33;;;;;;;2.30;0.53;;;7.60;99.90;;;;;;6217642;23;20165;-89
2023/03/24 22:27:07;;;;;;;2.27;0.60;;;7.50;99.90;;;;;;6224228;23;20211;-91
2023/03/24 22:29:39;;;;;;;2.10;0.70;;;7.50;99.90;;;;;;6218458;23;20519;-92
2023/03/24 22:32:10;;;;;;;2.10;0.83;;;7.30;99.90;;;;;;6217784;23;20191;-92
2023/03/24 22:34:42;;;;;;;2.10;0.60;;;7.40;99.90;;;;;;6222377;23;20173;-93
2023/03/24 22:37:14;;;;;;;1.73;0.60;;;7.40;99.90;;;;;;6220156;23;20187;-94
2023/03/24 22:39:45;;;;;;;2.80;0.40;;;7.40;99.90;;;;;;6219072;23;20176;-91
2023/03/24 22:42:19;;;;;;;3.37;0.80;;;7.50;99.90;;;;;;6219791;23;20177;-93
2023/03/24 22:44:50;;;;;;;1.33;0.53;;;7.30;99.90;;;;;;6219414;23;20227;-92
2023/03/24 22:47:22;;;;;;;1.07;0.50;;;7.30;99.90;;;;;;6220020;23;20172;-96
2023/03/24 22:49:53;;;;;;;0.93;0.43;;;7.20;99.90;;;;;;6217303;23;20204;-88
2023/03/24 22:52:25;;;;;;;3.33;1.03;;;7.20;99.90;;;;;;6217366;23;20176;-89
2023/03/24 22:54:56;;;;;;;1.53;0.67;;;7.20;99.90;;;;;;6217541;23;20169;-88
2023/03/24 22:57:29;;;;;;;1.00;0.50;;;7.20;99.90;;;;;;6216761;23;20235;-90
2023/03/24 23:00:00;;;;;;;4.57;1.27;;;7.00;99.90;;;;;;6216709;23;20183;-88
2023/03/24 23:02:31;;;;;;;1.80;0.90;;;6.90;99.90;;;;;;6217008;23;20168;-89
2023/03/24 23:05:02;;;;;;;1.73;0.60;;;6.90;99.90;;;;;;6216820;23;20252;-89
2023/03/24 23:07:33;;;;;;;1.37;0.77;;;6.70;99.90;;;;;;6216597;23;20190;-90
2023/03/24 23:10:07;;;;;;;5.97;1.63;;;6.50;99.90;;;;;;6216920;23;20207;-90
2023/03/24 23:12:41;;;;;;;1.40;0.60;;;6.50;99.90;;;;;;6217138;23;20187;-90
2023/03/24 23:15:16;;;;;;;2.33;1.20;;;6.40;99.90;;;;;;6216458;23;20169;-90
2023/03/24 23:17:47;;;;;;;1.23;0.60;;;6.30;99.90;;;;;;6219267;23;20492;-91
2023/03/24 23:20:19;;;;;;;2.70;1.03;;;6.30;99.90;;;;;;6217846;23;20172;-91
2023/03/24 23:22:50;;;;;;;1.37;0.47;;;6.20;99.90;;;;;;6217655;23;20187;-90
2023/03/24 23:25:21;;;;;;;3.83;1.20;;;6.20;99.90;;;;;;6219002;23;20180;-92
2023/03/24 23:27:54;;;;;;;2.10;0.73;;;6.20;99.90;;;;;;6217529;23;20179;-90
2023/03/24 23:30:25;;;;;;;3.30;0.77;;;6.10;99.90;;;;;;6218407;23;20262;-91
2023/03/24 23:32:57;;;;;;;0.67;0.60;;;6.00;99.90;;;;;;6218523;23;20693;-91
2023/03/24 23:35:28;;;;;;;0.70;0.43;;;6.00;99.90;;;;;;6219282;23;20529;-93
2023/03/24 23:37:58;;;;;;;0.30;0.30;;;5.90;99.90;;;;;;6218186;23;20180;-92
2023/03/24 23:40:29;;;;;;;1.23;0.40;;;5.80;99.90;;;;;;6218932;23;20169;-92
2023/03/24 23:43:03;;;;;;;1.60;0.67;;;5.80;99.90;;;;;;6219169;23;20172;-91
2023/03/24 23:45:34;;;;;;;0.43;0.40;;;5.80;99.90;;;;;;6218918;23;20177;-91
2023/03/24 23:48:06;;;;;;;1.27;0.50;;;5.60;99.90;;;;;;6218337;23;20181;-90
2023/03/24 23:50:37;;;;;;;1.23;0.33;;;5.70;99.90;;;;;;6220563;23;20206;-92
2023/03/24 23:53:08;;;;;;;1.97;0.87;;;5.70;99.90;;;;;;6218440;23;20207;-90
2023/03/24 23:55:40;;;;;;;0.60;0.40;;;5.60;99.90;;;;;;6217318;23;20164;-91
2023/03/24 23:58:13;;;;;;;0.20;0.20;;;5.60;99.90;;;;;;6216229;23;20689;-92
